sensor_id;sensor_type;location;lat;lon;timestamp;P1;durP1;ratioP1;P2;durP2;ratioP2
70266;SDS011;57676;43.856;1.926;2022-07-21T00:02:29;13.35;;;9.20;;
70266;SDS011;57676;43.856;1.926;2022-07-21T00:04:55;13.73;;;8.90;;
70266;SDS011;57676;43.856;1.926;2022-07-21T00:07:22;15.18;;;8.93;;
70266;SDS011;57676;43.856;1.926;2022-07-21T00:09:48;14.25;;;9.23;;
70266;SDS011;57676;43.856;1.926;2022-07-21T00:12:14;13.48;;;9.75;;
70266;SDS011;57676;43.856;1.926;2022-07-21T00:14:40;16.77;;;9.45;;
70266;SDS011;57676;43.856;1.926;2022-07-21T00:17:07;14.32;;;9.75;;
70266;SDS011;57676;43.856;1.926;2022-07-21T00:19:33;14.32;;;9.15;;
70266;SDS011;57676;43.856;1.926;2022-07-21T00:21:59;14.18;;;9.18;;
70266;SDS011;57676;43.856;1.926;2022-07-21T00:24:25;23.88;;;9.55;;
70266;SDS011;57676;43.856;1.926;2022-07-21T00:27:04;14.35;;;9.25;;
70266;SDS011;57676;43.856;1.926;2022-07-21T00:29:37;11.10;;;9.70;;
70266;SDS011;57676;43.856;1.926;2022-07-21T00:32:14;14.48;;;10.32;;
70266;SDS011;57676;43.856;1.926;2022-07-21T00:34:46;14.68;;;9.95;;
70266;SDS011;57676;43.856;1.926;2022-07-21T00:37:18;16.07;;;10.50;;
70266;SDS011;57676;43.856;1.926;2022-07-21T00:39:51;12.80;;;9.63;;
70266;SDS011;57676;43.856;1.926;2022-07-21T00:42:21;14.02;;;9.88;;
70266;SDS011;57676;43.856;1.926;2022-07-21T00:44:48;12.98;;;9.82;;
70266;SDS011;57676;43.856;1.926;2022-07-21T00:47:14;14.55;;;9.93;;
70266;SDS011;57676;43.856;1.926;2022-07-21T00:49:40;13.30;;;10.25;;
70266;SDS011;57676;43.856;1.926;2022-07-21T00:52:07;15.70;;;9.88;;
70266;SDS011;57676;43.856;1.926;2022-07-21T00:54:33;13.18;;;10.38;;
70266;SDS011;57676;43.856;1.926;2022-07-21T00:56:59;16.55;;;10.80;;
70266;SDS011;57676;43.856;1.926;2022-07-21T00:59:26;11.82;;;10.00;;
70266;SDS011;57676;43.856;1.926;2022-07-21T01:01:52;12.27;;;9.43;;
70266;SDS011;57676;43.856;1.926;2022-07-21T01:04:18;16.63;;;9.98;;
70266;SDS011;57676;43.856;1.926;2022-07-21T01:06:44;12.50;;;9.80;;
70266;SDS011;57676;43.856;1.926;2022-07-21T01:09:10;16.10;;;11.35;;
70266;SDS011;57676;43.856;1.926;2022-07-21T01:11:37;13.70;;;10.13;;
70266;SDS011;57676;43.856;1.926;2022-07-21T01:14:03;12.23;;;9.70;;
70266;SDS011;57676;43.856;1.926;2022-07-21T01:16:29;12.50;;;10.52;;
70266;SDS011;57676;43.856;1.926;2022-07-21T01:18:55;10.70;;;9.60;;
70266;SDS011;57676;43.856;1.926;2022-07-21T01:21:29;13.57;;;10.00;;
70266;SDS011;57676;43.856;1.926;2022-07-21T01:23:56;14.95;;;9.57;;
70266;SDS011;57676;43.856;1.926;2022-07-21T01:26:22;13.25;;;10.20;;
70266;SDS011;57676;43.856;1.926;2022-07-21T01:28:48;13.30;;;10.38;;
70266;SDS011;57676;43.856;1.926;2022-07-21T01:31:15;17.42;;;10.85;;
70266;SDS011;57676;43.856;1.926;2022-07-21T01:33:41;13.32;;;10.18;;
70266;SDS011;57676;43.856;1.926;2022-07-21T01:36:07;15.80;;;10.45;;
70266;SDS011;57676;43.856;1.926;2022-07-21T01:38:33;27.75;;;10.23;;
70266;SDS011;57676;43.856;1.926;2022-07-21T01:41:18;14.68;;;10.10;;
70266;SDS011;57676;43.856;1.926;2022-07-21T01:43:54;13.95;;;10.43;;
70266;SDS011;57676;43.856;1.926;2022-07-21T01:46:20;14.77;;;10.25;;
70266;SDS011;57676;43.856;1.926;2022-07-21T01:48:46;16.85;;;10.77;;
70266;SDS011;57676;43.856;1.926;2022-07-21T01:51:12;13.40;;;10.25;;
70266;SDS011;57676;43.856;1.926;2022-07-21T01:53:39;16.08;;;10.45;;
70266;SDS011;57676;43.856;1.926;2022-07-21T01:56:05;13.07;;;10.40;;
70266;SDS011;57676;43.856;1.926;2022-07-21T01:58:32;14.48;;;10.68;;
70266;SDS011;57676;43.856;1.926;2022-07-21T02:00:59;13.63;;;10.35;;
70266;SDS011;57676;43.856;1.926;2022-07-21T02:03:25;17.13;;;10.02;;
70266;SDS011;57676;43.856;1.926;2022-07-21T02:05:51;13.80;;;11.07;;
70266;SDS011;57676;43.856;1.926;2022-07-21T02:08:17;24.15;;;10.60;;
70266;SDS011;57676;43.856;1.926;2022-07-21T02:10:43;16.10;;;10.98;;
70266;SDS011;57676;43.856;1.926;2022-07-21T02:13:10;14.23;;;10.07;;
70266;SDS011;57676;43.856;1.926;2022-07-21T02:15:36;14.57;;;10.43;;
70266;SDS011;57676;43.856;1.926;2022-07-21T02:18:02;14.02;;;10.63;;
70266;SDS011;57676;43.856;1.926;2022-07-21T02:20:28;13.68;;;10.63;;
70266;SDS011;57676;43.856;1.926;2022-07-21T02:22:54;15.00;;;10.15;;
70266;SDS011;57676;43.856;1.926;2022-07-21T02:25:20;14.68;;;10.45;;
70266;SDS011;57676;43.856;1.926;2022-07-21T02:27:47;13.55;;;9.88;;
70266;SDS011;57676;43.856;1.926;2022-07-21T02:30:13;12.02;;;9.50;;
70266;SDS011;57676;43.856;1.926;2022-07-21T02:32:39;11.77;;;10.20;;
70266;SDS011;57676;43.856;1.926;2022-07-21T02:35:05;13.88;;;10.55;;
70266;SDS011;57676;43.856;1.926;2022-07-21T02:37:32;16.88;;;10.20;;
70266;SDS011;57676;43.856;1.926;2022-07-21T02:39:58;13.77;;;10.18;;
70266;SDS011;57676;43.856;1.926;2022-07-21T02:42:24;15.52;;;9.55;;
70266;SDS011;57676;43.856;1.926;2022-07-21T02:44:50;16.55;;;10.32;;
70266;SDS011;57676;43.856;1.926;2022-07-21T02:47:16;14.48;;;9.50;;
70266;SDS011;57676;43.856;1.926;2022-07-21T02:49:42;14.23;;;10.57;;
70266;SDS011;57676;43.856;1.926;2022-07-21T02:52:10;15.15;;;9.90;;
70266;SDS011;57676;43.856;1.926;2022-07-21T02:54:36;17.67;;;9.80;;
70266;SDS011;57676;43.856;1.926;2022-07-21T02:57:02;16.15;;;9.98;;
70266;SDS011;57676;43.856;1.926;2022-07-21T02:59:32;11.48;;;9.07;;
70266;SDS011;57676;43.856;1.926;2022-07-21T03:02:01;13.27;;;9.38;;
70266;SDS011;57676;43.856;1.926;2022-07-21T03:04:27;12.70;;;9.52;;
70266;SDS011;57676;43.856;1.926;2022-07-21T03:06:54;14.98;;;10.40;;
70266;SDS011;57676;43.856;1.926;2022-07-21T03:09:20;12.80;;;9.82;;
70266;SDS011;57676;43.856;1.926;2022-07-21T03:11:46;12.45;;;9.80;;
70266;SDS011;57676;43.856;1.926;2022-07-21T03:14:12;14.88;;;10.45;;
70266;SDS011;57676;43.856;1.926;2022-07-21T03:16:38;14.38;;;9.98;;
70266;SDS011;57676;43.856;1.926;2022-07-21T03:19:04;11.05;;;9.35;;
70266;SDS011;57676;43.856;1.926;2022-07-21T03:21:30;12.13;;;9.38;;
70266;SDS011;57676;43.856;1.926;2022-07-21T03:23:57;14.63;;;9.52;;
70266;SDS011;57676;43.856;1.926;2022-07-21T03:26:23;13.77;;;10.02;;
70266;SDS011;57676;43.856;1.926;2022-07-21T03:28:49;18.48;;;9.70;;
70266;SDS011;57676;43.856;1.926;2022-07-21T03:31:15;14.52;;;9.50;;
70266;SDS011;57676;43.856;1.926;2022-07-21T03:33:41;12.93;;;9.15;;
70266;SDS011;57676;43.856;1.926;2022-07-21T03:36:07;14.95;;;9.30;;
70266;SDS011;57676;43.856;1.926;2022-07-21T03:38:33;11.52;;;9.25;;
70266;SDS011;57676;43.856;1.926;2022-07-21T03:41:00;14.30;;;9.55;;
70266;SDS011;57676;43.856;1.926;2022-07-21T03:43:26;14.80;;;9.27;;
70266;SDS011;57676;43.856;1.926;2022-07-21T03:45:52;14.23;;;9.32;;
70266;SDS011;57676;43.856;1.926;2022-07-21T03:48:18;13.88;;;9.38;;
70266;SDS011;57676;43.856;1.926;2022-07-21T03:50:44;14.55;;;8.77;;
70266;SDS011;57676;43.856;1.926;2022-07-21T03:53:10;23.88;;;9.32;;
70266;SDS011;57676;43.856;1.926;2022-07-21T03:55:37;14.55;;;9.20;;
70266;SDS011;57676;43.856;1.926;2022-07-21T03:58:04;18.58;;;9.43;;
70266;SDS011;57676;43.856;1.926;2022-07-21T04:00:35;12.60;;;9.63;;
70266;SDS011;57676;43.856;1.926;2022-07-21T04:03:02;15.88;;;9.57;;
70266;SDS011;57676;43.856;1.926;2022-07-21T04:05:29;11.73;;;8.57;;
70266;SDS011;57676;43.856;1.926;2022-07-21T04:07:55;18.02;;;9.38;;
70266;SDS011;57676;43.856;1.926;2022-07-21T04:10:23;15.75;;;9.25;;
70266;SDS011;57676;43.856;1.926;2022-07-21T04:12:49;12.68;;;9.25;;
70266;SDS011;57676;43.856;1.926;2022-07-21T04:15:16;13.30;;;8.20;;
70266;SDS011;57676;43.856;1.926;2022-07-21T04:17:42;12.75;;;8.65;;
70266;SDS011;57676;43.856;1.926;2022-07-21T04:20:09;13.45;;;8.60;;
70266;SDS011;57676;43.856;1.926;2022-07-21T04:22:36;14.70;;;8.45;;
70266;SDS011;57676;43.856;1.926;2022-07-21T04:25:03;16.70;;;9.40;;
70266;SDS011;57676;43.856;1.926;2022-07-21T04:27:29;11.98;;;9.00;;
70266;SDS011;57676;43.856;1.926;2022-07-21T04:29:55;14.50;;;8.75;;
70266;SDS011;57676;43.856;1.926;2022-07-21T04:32:22;15.15;;;8.73;;
70266;SDS011;57676;43.856;1.926;2022-07-21T04:34:48;15.85;;;9.05;;
70266;SDS011;57676;43.856;1.926;2022-07-21T04:37:14;15.52;;;8.63;;
70266;SDS011;57676;43.856;1.926;2022-07-21T04:39:40;13.05;;;8.18;;
70266;SDS011;57676;43.856;1.926;2022-07-21T04:42:06;15.48;;;8.05;;
70266;SDS011;57676;43.856;1.926;2022-07-21T04:44:32;10.40;;;7.82;;
70266;SDS011;57676;43.856;1.926;2022-07-21T04:46:59;14.90;;;8.60;;
70266;SDS011;57676;43.856;1.926;2022-07-21T04:49:25;13.95;;;8.60;;
70266;SDS011;57676;43.856;1.926;2022-07-21T04:51:51;14.82;;;8.13;;
70266;SDS011;57676;43.856;1.926;2022-07-21T04:54:17;17.67;;;7.75;;
70266;SDS011;57676;43.856;1.926;2022-07-21T04:56:43;11.68;;;8.25;;
70266;SDS011;57676;43.856;1.926;2022-07-21T04:59:10;14.43;;;8.07;;
70266;SDS011;57676;43.856;1.926;2022-07-21T05:01:36;14.32;;;8.50;;
70266;SDS011;57676;43.856;1.926;2022-07-21T05:04:03;21.02;;;9.77;;
70266;SDS011;57676;43.856;1.926;2022-07-21T05:06:29;25.08;;;8.40;;
70266;SDS011;57676;43.856;1.926;2022-07-21T05:08:56;22.05;;;8.55;;
70266;SDS011;57676;43.856;1.926;2022-07-21T05:11:22;24.48;;;9.27;;
70266;SDS011;57676;43.856;1.926;2022-07-21T05:13:48;30.35;;;9.18;;
70266;SDS011;57676;43.856;1.926;2022-07-21T05:16:14;29.73;;;9.23;;
70266;SDS011;57676;43.856;1.926;2022-07-21T05:18:40;31.45;;;10.13;;
70266;SDS011;57676;43.856;1.926;2022-07-21T05:21:07;22.83;;;8.27;;
70266;SDS011;57676;43.856;1.926;2022-07-21T05:23:33;32.38;;;9.82;;
70266;SDS011;57676;43.856;1.926;2022-07-21T05:25:59;19.15;;;8.68;;
70266;SDS011;57676;43.856;1.926;2022-07-21T05:28:26;17.42;;;8.90;;
70266;SDS011;57676;43.856;1.926;2022-07-21T05:30:53;13.88;;;8.02;;
70266;SDS011;57676;43.856;1.926;2022-07-21T05:33:19;14.13;;;8.35;;
70266;SDS011;57676;43.856;1.926;2022-07-21T05:35:45;19.05;;;7.72;;
70266;SDS011;57676;43.856;1.926;2022-07-21T05:38:11;12.88;;;7.47;;
70266;SDS011;57676;43.856;1.926;2022-07-21T05:40:38;12.23;;;7.30;;
70266;SDS011;57676;43.856;1.926;2022-07-21T05:43:04;12.57;;;6.43;;
70266;SDS011;57676;43.856;1.926;2022-07-21T05:45:30;16.25;;;6.47;;
70266;SDS011;57676;43.856;1.926;2022-07-21T05:47:56;16.25;;;6.93;;
70266;SDS011;57676;43.856;1.926;2022-07-21T05:50:22;11.10;;;6.35;;
70266;SDS011;57676;43.856;1.926;2022-07-21T05:52:49;11.60;;;6.15;;
70266;SDS011;57676;43.856;1.926;2022-07-21T05:55:15;10.95;;;6.90;;
70266;SDS011;57676;43.856;1.926;2022-07-21T05:57:41;13.60;;;7.13;;
70266;SDS011;57676;43.856;1.926;2022-07-21T06:00:07;10.40;;;6.38;;
70266;SDS011;57676;43.856;1.926;2022-07-21T06:02:34;11.23;;;6.05;;
70266;SDS011;57676;43.856;1.926;2022-07-21T06:05:00;11.85;;;6.65;;
70266;SDS011;57676;43.856;1.926;2022-07-21T06:07:26;14.93;;;6.03;;
70266;SDS011;57676;43.856;1.926;2022-07-21T06:09:52;10.88;;;5.57;;
70266;SDS011;57676;43.856;1.926;2022-07-21T06:12:19;9.38;;;5.47;;
70266;SDS011;57676;43.856;1.926;2022-07-21T06:14:45;9.68;;;5.10;;
70266;SDS011;57676;43.856;1.926;2022-07-21T06:17:11;9.57;;;5.65;;
70266;SDS011;57676;43.856;1.926;2022-07-21T06:19:37;10.18;;;5.78;;
70266;SDS011;57676;43.856;1.926;2022-07-21T06:22:03;7.50;;;4.80;;
70266;SDS011;57676;43.856;1.926;2022-07-21T06:24:29;12.40;;;5.28;;
70266;SDS011;57676;43.856;1.926;2022-07-21T06:26:56;10.75;;;5.75;;
70266;SDS011;57676;43.856;1.926;2022-07-21T06:29:22;6.68;;;4.90;;
70266;SDS011;57676;43.856;1.926;2022-07-21T06:31:49;9.60;;;5.32;;
70266;SDS011;57676;43.856;1.926;2022-07-21T06:34:15;9.43;;;5.72;;
70266;SDS011;57676;43.856;1.926;2022-07-21T06:36:41;11.02;;;5.03;;
70266;SDS011;57676;43.856;1.926;2022-07-21T06:39:07;6.55;;;5.22;;
70266;SDS011;57676;43.856;1.926;2022-07-21T06:41:34;11.43;;;5.22;;
70266;SDS011;57676;43.856;1.926;2022-07-21T06:44:00;10.75;;;5.10;;
70266;SDS011;57676;43.856;1.926;2022-07-21T06:46:30;9.40;;;5.32;;
70266;SDS011;57676;43.856;1.926;2022-07-21T06:48:56;7.70;;;5.38;;
70266;SDS011;57676;43.856;1.926;2022-07-21T06:51:22;7.72;;;5.68;;
70266;SDS011;57676;43.856;1.926;2022-07-21T06:53:49;9.93;;;5.25;;
70266;SDS011;57676;43.856;1.926;2022-07-21T06:56:16;10.27;;;5.53;;
70266;SDS011;57676;43.856;1.926;2022-07-21T06:58:42;9.88;;;5.28;;
70266;SDS011;57676;43.856;1.926;2022-07-21T07:01:08;10.32;;;5.80;;
70266;SDS011;57676;43.856;1.926;2022-07-21T07:03:35;9.38;;;5.32;;
70266;SDS011;57676;43.856;1.926;2022-07-21T07:06:02;9.32;;;5.80;;
70266;SDS011;57676;43.856;1.926;2022-07-21T07:08:28;7.97;;;5.35;;
70266;SDS011;57676;43.856;1.926;2022-07-21T07:10:54;10.27;;;5.22;;
70266;SDS011;57676;43.856;1.926;2022-07-21T07:13:20;8.10;;;5.10;;
70266;SDS011;57676;43.856;1.926;2022-07-21T07:15:46;12.07;;;5.82;;
70266;SDS011;57676;43.856;1.926;2022-07-21T07:18:13;13.90;;;5.32;;
70266;SDS011;57676;43.856;1.926;2022-07-21T07:20:39;11.02;;;5.15;;
70266;SDS011;57676;43.856;1.926;2022-07-21T07:23:05;6.57;;;5.43;;
70266;SDS011;57676;43.856;1.926;2022-07-21T07:25:31;10.80;;;5.50;;
70266;SDS011;57676;43.856;1.926;2022-07-21T07:27:57;6.28;;;5.47;;
70266;SDS011;57676;43.856;1.926;2022-07-21T07:30:24;10.38;;;5.13;;
70266;SDS011;57676;43.856;1.926;2022-07-21T07:32:50;10.77;;;5.20;;
70266;SDS011;57676;43.856;1.926;2022-07-21T07:35:17;9.02;;;5.22;;
70266;SDS011;57676;43.856;1.926;2022-07-21T07:37:44;9.80;;;5.30;;
70266;SDS011;57676;43.856;1.926;2022-07-21T07:40:12;10.55;;;5.53;;
70266;SDS011;57676;43.856;1.926;2022-07-21T07:42:42;10.32;;;5.50;;
70266;SDS011;57676;43.856;1.926;2022-07-21T07:45:09;11.77;;;5.90;;
70266;SDS011;57676;43.856;1.926;2022-07-21T07:47:35;9.27;;;5.60;;
70266;SDS011;57676;43.856;1.926;2022-07-21T07:50:02;13.77;;;5.30;;
70266;SDS011;57676;43.856;1.926;2022-07-21T07:52:28;8.38;;;5.93;;
70266;SDS011;57676;43.856;1.926;2022-07-21T07:54:54;9.70;;;5.43;;
70266;SDS011;57676;43.856;1.926;2022-07-21T07:57:21;9.35;;;5.20;;
70266;SDS011;57676;43.856;1.926;2022-07-21T07:59:47;7.68;;;5.65;;
70266;SDS011;57676;43.856;1.926;2022-07-21T08:02:13;12.15;;;5.15;;
70266;SDS011;57676;43.856;1.926;2022-07-21T08:04:39;7.90;;;5.65;;
70266;SDS011;57676;43.856;1.926;2022-07-21T08:07:08;8.00;;;5.93;;
70266;SDS011;57676;43.856;1.926;2022-07-21T08:09:34;7.70;;;5.60;;
70266;SDS011;57676;43.856;1.926;2022-07-21T08:12:01;9.38;;;5.70;;
70266;SDS011;57676;43.856;1.926;2022-07-21T08:14:27;11.13;;;5.90;;
70266;SDS011;57676;43.856;1.926;2022-07-21T08:16:54;10.05;;;5.20;;
70266;SDS011;57676;43.856;1.926;2022-07-21T08:19:24;6.57;;;5.97;;
70266;SDS011;57676;43.856;1.926;2022-07-21T08:21:51;10.73;;;6.13;;
70266;SDS011;57676;43.856;1.926;2022-07-21T08:24:17;10.50;;;6.15;;
70266;SDS011;57676;43.856;1.926;2022-07-21T08:26:43;7.50;;;6.40;;
70266;SDS011;57676;43.856;1.926;2022-07-21T08:29:10;10.73;;;7.15;;
70266;SDS011;57676;43.856;1.926;2022-07-21T08:31:36;7.93;;;6.47;;
70266;SDS011;57676;43.856;1.926;2022-07-21T08:34:02;6.63;;;5.93;;
70266;SDS011;57676;43.856;1.926;2022-07-21T08:36:29;7.80;;;6.65;;
70266;SDS011;57676;43.856;1.926;2022-07-21T08:38:55;9.13;;;6.55;;
70266;SDS011;57676;43.856;1.926;2022-07-21T08:41:21;8.73;;;7.10;;
70266;SDS011;57676;43.856;1.926;2022-07-21T08:43:49;9.43;;;7.05;;
70266;SDS011;57676;43.856;1.926;2022-07-21T08:46:15;11.45;;;7.55;;
70266;SDS011;57676;43.856;1.926;2022-07-21T08:48:42;7.80;;;7.00;;
70266;SDS011;57676;43.856;1.926;2022-07-21T08:51:08;8.63;;;7.80;;
70266;SDS011;57676;43.856;1.926;2022-07-21T08:53:34;8.25;;;7.55;;
70266;SDS011;57676;43.856;1.926;2022-07-21T08:56:01;10.80;;;7.88;;
70266;SDS011;57676;43.856;1.926;2022-07-21T08:58:27;8.60;;;7.80;;
70266;SDS011;57676;43.856;1.926;2022-07-21T09:00:54;9.10;;;8.27;;
70266;SDS011;57676;43.856;1.926;2022-07-21T09:03:24;9.02;;;8.13;;
70266;SDS011;57676;43.856;1.926;2022-07-21T09:06:01;8.68;;;7.63;;
70266;SDS011;57676;43.856;1.926;2022-07-21T09:08:33;10.63;;;8.50;;
70266;SDS011;57676;43.856;1.926;2022-07-21T09:13:41;9.80;;;8.77;;
70266;SDS011;57676;43.856;1.926;2022-07-21T09:16:08;9.60;;;8.60;;
70266;SDS011;57676;43.856;1.926;2022-07-21T09:18:39;9.40;;;8.45;;
70266;SDS011;57676;43.856;1.926;2022-07-21T09:21:12;10.85;;;8.93;;
70266;SDS011;57676;43.856;1.926;2022-07-21T09:23:38;9.20;;;8.40;;
70266;SDS011;57676;43.856;1.926;2022-07-21T09:26:04;12.18;;;8.27;;
70266;SDS011;57676;43.856;1.926;2022-07-21T09:28:30;9.35;;;8.45;;
70266;SDS011;57676;43.856;1.926;2022-07-21T09:31:04;8.00;;;7.40;;
70266;SDS011;57676;43.856;1.926;2022-07-21T09:33:40;10.02;;;7.68;;
70266;SDS011;57676;43.856;1.926;2022-07-21T09:36:11;8.32;;;7.43;;
70266;SDS011;57676;43.856;1.926;2022-07-21T09:38:42;8.05;;;7.25;;
70266;SDS011;57676;43.856;1.926;2022-07-21T09:43:39;7.65;;;7.05;;
70266;SDS011;57676;43.856;1.926;2022-07-21T09:46:11;8.20;;;7.40;;
70266;SDS011;57676;43.856;1.926;2022-07-21T09:48:38;9.77;;;7.80;;
70266;SDS011;57676;43.856;1.926;2022-07-21T09:53:50;11.32;;;7.25;;
70266;SDS011;57676;43.856;1.926;2022-07-21T09:56:17;8.45;;;7.32;;
70266;SDS011;57676;43.856;1.926;2022-07-21T09:58:45;10.43;;;7.13;;
70266;SDS011;57676;43.856;1.926;2022-07-21T10:01:12;7.60;;;7.03;;
70266;SDS011;57676;43.856;1.926;2022-07-21T10:03:38;8.32;;;6.57;;
70266;SDS011;57676;43.856;1.926;2022-07-21T10:06:05;8.90;;;7.43;;
70266;SDS011;57676;43.856;1.926;2022-07-21T10:08:32;9.77;;;7.63;;
70266;SDS011;57676;43.856;1.926;2022-07-21T10:10:59;11.50;;;7.38;;
70266;SDS011;57676;43.856;1.926;2022-07-21T10:13:25;9.55;;;7.10;;
70266;SDS011;57676;43.856;1.926;2022-07-21T10:15:53;8.00;;;7.18;;
70266;SDS011;57676;43.856;1.926;2022-07-21T10:18:19;7.38;;;6.65;;
70266;SDS011;57676;43.856;1.926;2022-07-21T10:20:48;10.77;;;7.18;;
70266;SDS011;57676;43.856;1.926;2022-07-21T10:23:35;7.15;;;6.55;;
70266;SDS011;57676;43.856;1.926;2022-07-21T10:26:03;8.63;;;6.72;;
70266;SDS011;57676;43.856;1.926;2022-07-21T10:28:30;8.35;;;7.53;;
70266;SDS011;57676;43.856;1.926;2022-07-21T10:30:58;9.00;;;7.00;;
70266;SDS011;57676;43.856;1.926;2022-07-21T10:36:09;7.93;;;7.05;;
70266;SDS011;57676;43.856;1.926;2022-07-21T10:38:36;7.55;;;6.63;;
70266;SDS011;57676;43.856;1.926;2022-07-21T10:41:04;8.95;;;6.35;;
70266;SDS011;57676;43.856;1.926;2022-07-21T10:45:57;7.78;;;6.38;;
70266;SDS011;57676;43.856;1.926;2022-07-21T10:53:34;7.30;;;6.15;;
70266;SDS011;57676;43.856;1.926;2022-07-21T10:56:00;10.45;;;7.20;;
70266;SDS011;57676;43.856;1.926;2022-07-21T10:58:27;7.97;;;6.78;;
70266;SDS011;57676;43.856;1.926;2022-07-21T11:00:56;10.40;;;6.90;;
70266;SDS011;57676;43.856;1.926;2022-07-21T11:03:29;8.82;;;7.38;;
70266;SDS011;57676;43.856;1.926;2022-07-21T11:08:52;12.48;;;6.60;;
70266;SDS011;57676;43.856;1.926;2022-07-21T11:19:32;11.02;;;7.15;;
70266;SDS011;57676;43.856;1.926;2022-07-21T11:22:09;10.43;;;7.53;;
70266;SDS011;57676;43.856;1.926;2022-07-21T11:24:35;12.55;;;6.97;;
70266;SDS011;57676;43.856;1.926;2022-07-21T11:27:07;7.30;;;6.60;;
70266;SDS011;57676;43.856;1.926;2022-07-21T11:29:42;8.45;;;6.82;;
70266;SDS011;57676;43.856;1.926;2022-07-21T11:32:20;7.43;;;6.68;;
70266;SDS011;57676;43.856;1.926;2022-07-21T11:37:29;7.85;;;7.05;;
70266;SDS011;57676;43.856;1.926;2022-07-21T11:40:13;8.32;;;7.28;;
70266;SDS011;57676;43.856;1.926;2022-07-21T11:42:44;7.70;;;6.90;;
70266;SDS011;57676;43.856;1.926;2022-07-21T11:45:12;7.53;;;6.82;;
70266;SDS011;57676;43.856;1.926;2022-07-21T11:47:39;11.00;;;7.45;;
70266;SDS011;57676;43.856;1.926;2022-07-21T11:50:08;7.70;;;6.88;;
70266;SDS011;57676;43.856;1.926;2022-07-21T11:52:36;7.15;;;6.25;;
70266;SDS011;57676;43.856;1.926;2022-07-21T11:55:03;10.80;;;7.13;;
70266;SDS011;57676;43.856;1.926;2022-07-21T11:57:30;7.50;;;6.85;;
70266;SDS011;57676;43.856;1.926;2022-07-21T11:59:57;8.98;;;7.38;;
70266;SDS011;57676;43.856;1.926;2022-07-21T12:02:25;8.98;;;7.68;;
70266;SDS011;57676;43.856;1.926;2022-07-21T12:04:55;9.20;;;6.95;;
70266;SDS011;57676;43.856;1.926;2022-07-21T12:07:24;8.45;;;7.53;;
70266;SDS011;57676;43.856;1.926;2022-07-21T12:09:51;10.23;;;6.78;;
70266;SDS011;57676;43.856;1.926;2022-07-21T12:12:27;8.77;;;6.47;;
70266;SDS011;57676;43.856;1.926;2022-07-21T12:14:54;18.63;;;6.90;;
70266;SDS011;57676;43.856;1.926;2022-07-21T12:17:36;7.57;;;6.93;;
70266;SDS011;57676;43.856;1.926;2022-07-21T12:20:03;9.40;;;6.50;;
70266;SDS011;57676;43.856;1.926;2022-07-21T12:22:40;8.02;;;6.38;;
70266;SDS011;57676;43.856;1.926;2022-07-21T12:25:09;7.35;;;6.65;;
70266;SDS011;57676;43.856;1.926;2022-07-21T12:27:36;11.13;;;7.22;;
70266;SDS011;57676;43.856;1.926;2022-07-21T12:30:04;10.02;;;7.43;;
70266;SDS011;57676;43.856;1.926;2022-07-21T12:32:37;7.03;;;6.35;;
70266;SDS011;57676;43.856;1.926;2022-07-21T12:35:04;7.72;;;7.10;;
70266;SDS011;57676;43.856;1.926;2022-07-21T12:40:15;8.52;;;7.32;;
70266;SDS011;57676;43.856;1.926;2022-07-21T12:42:41;8.02;;;7.05;;
70266;SDS011;57676;43.856;1.926;2022-07-21T12:45:14;7.47;;;6.43;;
70266;SDS011;57676;43.856;1.926;2022-07-21T12:47:41;10.60;;;7.53;;
70266;SDS011;57676;43.856;1.926;2022-07-21T12:50:08;8.48;;;7.05;;
70266;SDS011;57676;43.856;1.926;2022-07-21T12:52:34;8.07;;;6.68;;
70266;SDS011;57676;43.856;1.926;2022-07-21T12:55:00;9.63;;;7.50;;
70266;SDS011;57676;43.856;1.926;2022-07-21T12:57:27;7.72;;;7.00;;
70266;SDS011;57676;43.856;1.926;2022-07-21T12:59:54;7.50;;;6.90;;
70266;SDS011;57676;43.856;1.926;2022-07-21T13:02:21;10.05;;;6.60;;
70266;SDS011;57676;43.856;1.926;2022-07-21T13:04:47;11.68;;;6.85;;
70266;SDS011;57676;43.856;1.926;2022-07-21T13:07:13;9.52;;;6.70;;
70266;SDS011;57676;43.856;1.926;2022-07-21T13:09:40;6.97;;;6.35;;
70266;SDS011;57676;43.856;1.926;2022-07-21T13:12:06;8.55;;;6.60;;
70266;SDS011;57676;43.856;1.926;2022-07-21T13:14:32;9.30;;;7.50;;
70266;SDS011;57676;43.856;1.926;2022-07-21T13:16:59;11.35;;;7.40;;
70266;SDS011;57676;43.856;1.926;2022-07-21T13:19:25;10.75;;;6.40;;
70266;SDS011;57676;43.856;1.926;2022-07-21T13:21:51;10.75;;;6.88;;
70266;SDS011;57676;43.856;1.926;2022-07-21T13:24:18;7.97;;;7.10;;
70266;SDS011;57676;43.856;1.926;2022-07-21T13:26:45;11.27;;;6.47;;
70266;SDS011;57676;43.856;1.926;2022-07-21T13:29:11;7.10;;;6.32;;
70266;SDS011;57676;43.856;1.926;2022-07-21T13:31:37;7.18;;;6.47;;
70266;SDS011;57676;43.856;1.926;2022-07-21T13:34:04;11.73;;;6.22;;
70266;SDS011;57676;43.856;1.926;2022-07-21T13:36:35;9.05;;;5.88;;
70266;SDS011;57676;43.856;1.926;2022-07-21T13:39:02;8.52;;;7.07;;
70266;SDS011;57676;43.856;1.926;2022-07-21T13:41:29;11.13;;;6.80;;
70266;SDS011;57676;43.856;1.926;2022-07-21T13:43:56;8.60;;;6.45;;
70266;SDS011;57676;43.856;1.926;2022-07-21T13:46:22;9.60;;;6.65;;
70266;SDS011;57676;43.856;1.926;2022-07-21T13:48:48;10.02;;;6.47;;
70266;SDS011;57676;43.856;1.926;2022-07-21T13:51:15;7.25;;;6.40;;
70266;SDS011;57676;43.856;1.926;2022-07-21T13:53:42;6.90;;;5.50;;
70266;SDS011;57676;43.856;1.926;2022-07-21T13:56:08;7.18;;;6.32;;
70266;SDS011;57676;43.856;1.926;2022-07-21T13:58:35;7.53;;;6.00;;
70266;SDS011;57676;43.856;1.926;2022-07-21T14:01:02;6.53;;;5.90;;
70266;SDS011;57676;43.856;1.926;2022-07-21T14:03:30;6.00;;;5.50;;
70266;SDS011;57676;43.856;1.926;2022-07-21T14:06:00;6.63;;;6.03;;
70266;SDS011;57676;43.856;1.926;2022-07-21T14:08:28;13.57;;;6.25;;
70266;SDS011;57676;43.856;1.926;2022-07-21T14:10:55;10.02;;;5.47;;
70266;SDS011;57676;43.856;1.926;2022-07-21T14:13:21;10.95;;;6.40;;
70266;SDS011;57676;43.856;1.926;2022-07-21T14:15:48;6.25;;;5.38;;
70266;SDS011;57676;43.856;1.926;2022-07-21T14:18:20;9.30;;;6.68;;
70266;SDS011;57676;43.856;1.926;2022-07-21T14:20:47;6.80;;;5.13;;
70266;SDS011;57676;43.856;1.926;2022-07-21T14:23:17;7.68;;;6.18;;
70266;SDS011;57676;43.856;1.926;2022-07-21T14:25:46;7.95;;;5.90;;
70266;SDS011;57676;43.856;1.926;2022-07-21T14:28:15;7.65;;;6.22;;
70266;SDS011;57676;43.856;1.926;2022-07-21T14:30:41;7.25;;;5.75;;
70266;SDS011;57676;43.856;1.926;2022-07-21T14:33:08;6.88;;;5.88;;
70266;SDS011;57676;43.856;1.926;2022-07-21T14:35:34;12.13;;;6.05;;
70266;SDS011;57676;43.856;1.926;2022-07-21T14:38:01;8.05;;;5.78;;
70266;SDS011;57676;43.856;1.926;2022-07-21T14:40:29;8.63;;;5.53;;
70266;SDS011;57676;43.856;1.926;2022-07-21T14:42:58;6.80;;;5.90;;
70266;SDS011;57676;43.856;1.926;2022-07-21T14:45:25;9.32;;;5.97;;
70266;SDS011;57676;43.856;1.926;2022-07-21T14:47:52;7.07;;;6.07;;
70266;SDS011;57676;43.856;1.926;2022-07-21T14:50:18;6.65;;;5.95;;
70266;SDS011;57676;43.856;1.926;2022-07-21T14:52:45;9.30;;;6.15;;
70266;SDS011;57676;43.856;1.926;2022-07-21T14:55:12;7.80;;;5.65;;
70266;SDS011;57676;43.856;1.926;2022-07-21T14:57:44;12.75;;;6.32;;
70266;SDS011;57676;43.856;1.926;2022-07-21T15:00:15;6.75;;;5.47;;
70266;SDS011;57676;43.856;1.926;2022-07-21T15:02:45;7.28;;;5.93;;
70266;SDS011;57676;43.856;1.926;2022-07-21T15:05:15;5.80;;;5.05;;
70266;SDS011;57676;43.856;1.926;2022-07-21T15:07:47;6.30;;;5.28;;
70266;SDS011;57676;43.856;1.926;2022-07-21T15:10:18;7.22;;;5.60;;
70266;SDS011;57676;43.856;1.926;2022-07-21T15:12:45;7.13;;;6.43;;
70266;SDS011;57676;43.856;1.926;2022-07-21T15:15:11;6.03;;;5.43;;